sensor_id;sensor_type;location;lat;lon;timestamp;P1;durP1;ratioP1;P2;durP2;ratioP2
5555;SDS011;2801;50.972;7.856;2024-03-08T00:00:06;34.23;;;16.50;;
5555;SDS011;2801;50.972;7.856;2024-03-08T00:02:36;31.87;;;17.07;;
5555;SDS011;2801;50.972;7.856;2024-03-08T00:05:04;34.43;;;16.93;;
5555;SDS011;2801;50.972;7.856;2024-03-08T00:07:33;36.60;;;18.57;;
5555;SDS011;2801;50.972;7.856;2024-03-08T00:10:00;34.80;;;17.07;;
5555;SDS011;2801;50.972;7.856;2024-03-08T00:12:26;34.73;;;16.73;;
5555;SDS011;2801;50.972;7.856;2024-03-08T00:14:54;35.53;;;16.60;;
5555;SDS011;2801;50.972;7.856;2024-03-08T00:17:21;31.17;;;15.87;;
5555;SDS011;2801;50.972;7.856;2024-03-08T00:19:51;32.90;;;15.87;;
5555;SDS011;2801;50.972;7.856;2024-03-08T00:22:18;30.73;;;15.97;;
5555;SDS011;2801;50.972;7.856;2024-03-08T00:24:45;36.17;;;16.73;;
5555;SDS011;2801;50.972;7.856;2024-03-08T00:27:12;34.90;;;16.33;;
5555;SDS011;2801;50.972;7.856;2024-03-08T00:29:39;33.47;;;16.43;;
5555;SDS011;2801;50.972;7.856;2024-03-08T00:32:06;34.07;;;16.70;;
5555;SDS011;2801;50.972;7.856;2024-03-08T00:34:37;35.23;;;16.67;;
5555;SDS011;2801;50.972;7.856;2024-03-08T00:37:04;33.03;;;16.27;;
5555;SDS011;2801;50.972;7.856;2024-03-08T00:39:31;36.07;;;16.30;;
5555;SDS011;2801;50.972;7.856;2024-03-08T00:41:59;33.27;;;17.40;;
5555;SDS011;2801;50.972;7.856;2024-03-08T00:44:26;35.63;;;17.27;;
5555;SDS011;2801;50.972;7.856;2024-03-08T00:46:53;34.50;;;17.33;;
5555;SDS011;2801;50.972;7.856;2024-03-08T00:49:20;32.73;;;16.67;;
5555;SDS011;2801;50.972;7.856;2024-03-08T00:51:49;33.20;;;16.40;;
5555;SDS011;2801;50.972;7.856;2024-03-08T00:54:16;35.00;;;17.70;;
5555;SDS011;2801;50.972;7.856;2024-03-08T00:56:43;35.43;;;16.70;;
5555;SDS011;2801;50.972;7.856;2024-03-08T00:59:10;36.90;;;17.87;;
5555;SDS011;2801;50.972;7.856;2024-03-08T01:01:36;37.10;;;17.67;;
5555;SDS011;2801;50.972;7.856;2024-03-08T01:04:04;34.67;;;16.60;;
5555;SDS011;2801;50.972;7.856;2024-03-08T01:06:30;33.17;;;17.30;;
5555;SDS011;2801;50.972;7.856;2024-03-08T01:08:58;35.27;;;18.13;;
5555;SDS011;2801;50.972;7.856;2024-03-08T01:11:25;35.80;;;17.13;;
5555;SDS011;2801;50.972;7.856;2024-03-08T01:13:54;36.67;;;17.53;;
5555;SDS011;2801;50.972;7.856;2024-03-08T01:16:21;38.63;;;18.23;;
5555;SDS011;2801;50.972;7.856;2024-03-08T01:18:48;35.20;;;18.50;;
5555;SDS011;2801;50.972;7.856;2024-03-08T01:21:15;36.77;;;18.57;;
5555;SDS011;2801;50.972;7.856;2024-03-08T01:23:42;34.80;;;17.87;;
5555;SDS011;2801;50.972;7.856;2024-03-08T01:26:09;37.63;;;18.03;;
5555;SDS011;2801;50.972;7.856;2024-03-08T01:28:36;36.83;;;17.87;;
5555;SDS011;2801;50.972;7.856;2024-03-08T01:31:03;29.43;;;15.13;;
5555;SDS011;2801;50.972;7.856;2024-03-08T01:33:30;35.00;;;17.97;;
5555;SDS011;2801;50.972;7.856;2024-03-08T01:35:58;36.23;;;17.53;;
5555;SDS011;2801;50.972;7.856;2024-03-08T01:38:25;34.37;;;16.90;;
5555;SDS011;2801;50.972;7.856;2024-03-08T01:40:52;31.77;;;16.37;;
5555;SDS011;2801;50.972;7.856;2024-03-08T01:43:19;35.20;;;17.50;;
5555;SDS011;2801;50.972;7.856;2024-03-08T01:45:48;36.57;;;17.30;;
5555;SDS011;2801;50.972;7.856;2024-03-08T01:48:15;39.47;;;17.97;;
5555;SDS011;2801;50.972;7.856;2024-03-08T01:50:44;37.90;;;18.00;;
5555;SDS011;2801;50.972;7.856;2024-03-08T01:53:12;36.97;;;18.33;;
5555;SDS011;2801;50.972;7.856;2024-03-08T01:55:41;33.67;;;17.70;;
5555;SDS011;2801;50.972;7.856;2024-03-08T01:58:12;36.07;;;17.63;;
5555;SDS011;2801;50.972;7.856;2024-03-08T02:00:43;39.10;;;17.40;;
5555;SDS011;2801;50.972;7.856;2024-03-08T02:03:18;33.77;;;17.00;;
5555;SDS011;2801;50.972;7.856;2024-03-08T02:05:45;44.37;;;18.23;;
5555;SDS011;2801;50.972;7.856;2024-03-08T02:08:12;34.83;;;17.13;;
5555;SDS011;2801;50.972;7.856;2024-03-08T02:10:42;38.87;;;18.53;;
5555;SDS011;2801;50.972;7.856;2024-03-08T02:13:11;38.40;;;17.67;;
5555;SDS011;2801;50.972;7.856;2024-03-08T02:15:51;41.10;;;18.17;;
5555;SDS011;2801;50.972;7.856;2024-03-08T02:18:23;34.13;;;17.37;;
5555;SDS011;2801;50.972;7.856;2024-03-08T02:20:57;36.80;;;17.90;;
5555;SDS011;2801;50.972;7.856;2024-03-08T02:23:26;36.50;;;17.73;;
5555;SDS011;2801;50.972;7.856;2024-03-08T02:25:54;37.73;;;17.53;;
5555;SDS011;2801;50.972;7.856;2024-03-08T02:28:23;37.33;;;17.27;;
5555;SDS011;2801;50.972;7.856;2024-03-08T02:30:55;36.23;;;17.87;;
5555;SDS011;2801;50.972;7.856;2024-03-08T02:33:25;42.13;;;18.23;;
5555;SDS011;2801;50.972;7.856;2024-03-08T02:35:54;36.57;;;17.97;;
5555;SDS011;2801;50.972;7.856;2024-03-08T02:38:22;37.03;;;17.73;;
5555;SDS011;2801;50.972;7.856;2024-03-08T02:40:51;35.13;;;17.70;;
5555;SDS011;2801;50.972;7.856;2024-03-08T02:43:20;40.17;;;17.40;;
5555;SDS011;2801;50.972;7.856;2024-03-08T02:45:48;35.60;;;17.90;;
5555;SDS011;2801;50.972;7.856;2024-03-08T02:48:16;34.27;;;16.90;;
5555;SDS011;2801;50.972;7.856;2024-03-08T02:50:43;37.30;;;16.93;;
5555;SDS011;2801;50.972;7.856;2024-03-08T02:53:12;32.37;;;16.53;;
5555;SDS011;2801;50.972;7.856;2024-03-08T02:55:40;32.97;;;16.33;;
5555;SDS011;2801;50.972;7.856;2024-03-08T02:58:08;36.57;;;17.20;;
5555;SDS011;2801;50.972;7.856;2024-03-08T03:00:38;37.10;;;17.37;;
5555;SDS011;2801;50.972;7.856;2024-03-08T03:03:07;37.60;;;17.40;;
5555;SDS011;2801;50.972;7.856;2024-03-08T03:05:35;40.20;;;17.53;;
5555;SDS011;2801;50.972;7.856;2024-03-08T03:08:02;38.03;;;17.83;;
5555;SDS011;2801;50.972;7.856;2024-03-08T03:10:36;35.07;;;17.57;;
5555;SDS011;2801;50.972;7.856;2024-03-08T03:13:03;35.63;;;15.70;;
5555;SDS011;2801;50.972;7.856;2024-03-08T03:15:31;37.47;;;18.07;;
5555;SDS011;2801;50.972;7.856;2024-03-08T03:18:00;37.00;;;17.60;;
5555;SDS011;2801;50.972;7.856;2024-03-08T03:20:28;22.57;;;10.30;;
5555;SDS011;2801;50.972;7.856;2024-03-08T03:23:07;32.93;;;16.07;;
5555;SDS011;2801;50.972;7.856;2024-03-08T03:25:35;34.53;;;17.60;;
5555;SDS011;2801;50.972;7.856;2024-03-08T03:28:05;37.13;;;17.70;;
5555;SDS011;2801;50.972;7.856;2024-03-08T03:30:34;41.33;;;17.70;;
5555;SDS011;2801;50.972;7.856;2024-03-08T03:33:01;35.87;;;17.57;;
5555;SDS011;2801;50.972;7.856;2024-03-08T03:35:34;35.40;;;17.67;;
5555;SDS011;2801;50.972;7.856;2024-03-08T03:38:02;38.93;;;17.37;;
5555;SDS011;2801;50.972;7.856;2024-03-08T03:40:35;37.20;;;17.93;;
5555;SDS011;2801;50.972;7.856;2024-03-08T03:43:04;36.83;;;17.50;;
5555;SDS011;2801;50.972;7.856;2024-03-08T03:45:31;42.53;;;18.40;;
5555;SDS011;2801;50.972;7.856;2024-03-08T03:48:07;43.63;;;19.63;;
5555;SDS011;2801;50.972;7.856;2024-03-08T03:50:38;36.20;;;18.57;;
5555;SDS011;2801;50.972;7.856;2024-03-08T03:53:06;41.07;;;18.70;;
5555;SDS011;2801;50.972;7.856;2024-03-08T03:55:34;35.10;;;18.27;;
5555;SDS011;2801;50.972;7.856;2024-03-08T03:58:03;40.80;;;19.00;;
5555;SDS011;2801;50.972;7.856;2024-03-08T04:00:30;36.83;;;17.10;;
5555;SDS011;2801;50.972;7.856;2024-03-08T04:02:58;41.20;;;18.53;;
5555;SDS011;2801;50.972;7.856;2024-03-08T04:05:27;35.60;;;17.00;;
5555;SDS011;2801;50.972;7.856;2024-03-08T04:07:54;38.47;;;18.63;;
5555;SDS011;2801;50.972;7.856;2024-03-08T04:10:21;39.87;;;18.23;;
5555;SDS011;2801;50.972;7.856;2024-03-08T04:12:48;37.80;;;17.27;;
5555;SDS011;2801;50.972;7.856;2024-03-08T04:15:15;42.33;;;18.47;;
5555;SDS011;2801;50.972;7.856;2024-03-08T04:17:42;39.17;;;18.03;;
5555;SDS011;2801;50.972;7.856;2024-03-08T04:20:12;41.27;;;19.03;;
5555;SDS011;2801;50.972;7.856;2024-03-08T04:22:41;34.20;;;16.47;;
5555;SDS011;2801;50.972;7.856;2024-03-08T04:25:10;35.47;;;17.40;;
5555;SDS011;2801;50.972;7.856;2024-03-08T04:27:37;36.20;;;17.93;;
5555;SDS011;2801;50.972;7.856;2024-03-08T04:30:04;36.63;;;17.90;;
5555;SDS011;2801;50.972;7.856;2024-03-08T04:32:34;38.63;;;18.87;;
5555;SDS011;2801;50.972;7.856;2024-03-08T04:35:02;36.63;;;16.63;;
5555;SDS011;2801;50.972;7.856;2024-03-08T04:37:30;35.97;;;17.20;;
5555;SDS011;2801;50.972;7.856;2024-03-08T04:39:57;40.70;;;18.47;;
5555;SDS011;2801;50.972;7.856;2024-03-08T04:42:26;39.30;;;18.17;;
5555;SDS011;2801;50.972;7.856;2024-03-08T04:44:55;42.60;;;19.50;;
5555;SDS011;2801;50.972;7.856;2024-03-08T04:47:28;38.53;;;18.27;;
5555;SDS011;2801;50.972;7.856;2024-03-08T04:49:55;35.43;;;17.00;;
5555;SDS011;2801;50.972;7.856;2024-03-08T04:52:23;36.47;;;18.57;;
5555;SDS011;2801;50.972;7.856;2024-03-08T04:54:50;45.60;;;19.63;;
5555;SDS011;2801;50.972;7.856;2024-03-08T04:57:17;42.63;;;20.37;;
5555;SDS011;2801;50.972;7.856;2024-03-08T04:59:46;48.00;;;21.90;;
5555;SDS011;2801;50.972;7.856;2024-03-08T05:02:14;47.03;;;20.53;;
5555;SDS011;2801;50.972;7.856;2024-03-08T05:04:41;38.63;;;17.83;;
5555;SDS011;2801;50.972;7.856;2024-03-08T05:07:09;41.80;;;18.73;;
5555;SDS011;2801;50.972;7.856;2024-03-08T05:09:36;38.73;;;18.47;;
5555;SDS011;2801;50.972;7.856;2024-03-08T05:12:04;45.03;;;19.97;;
5555;SDS011;2801;50.972;7.856;2024-03-08T05:14:31;47.97;;;21.00;;
5555;SDS011;2801;50.972;7.856;2024-03-08T05:16:58;43.63;;;20.27;;
5555;SDS011;2801;50.972;7.856;2024-03-08T05:19:27;44.20;;;20.07;;
5555;SDS011;2801;50.972;7.856;2024-03-08T05:22:00;44.80;;;19.90;;
5555;SDS011;2801;50.972;7.856;2024-03-08T05:24:27;36.67;;;17.53;;
5555;SDS011;2801;50.972;7.856;2024-03-08T05:26:54;41.40;;;19.03;;
5555;SDS011;2801;50.972;7.856;2024-03-08T05:29:20;42.77;;;19.83;;
5555;SDS011;2801;50.972;7.856;2024-03-08T05:31:49;40.17;;;18.70;;
5555;SDS011;2801;50.972;7.856;2024-03-08T05:34:21;44.73;;;19.23;;
5555;SDS011;2801;50.972;7.856;2024-03-08T05:36:49;42.57;;;18.00;;
5555;SDS011;2801;50.972;7.856;2024-03-08T05:39:17;43.33;;;18.37;;
5555;SDS011;2801;50.972;7.856;2024-03-08T05:41:46;44.03;;;18.70;;
5555;SDS011;2801;50.972;7.856;2024-03-08T05:44:14;45.40;;;19.30;;
5555;SDS011;2801;50.972;7.856;2024-03-08T05:46:44;43.93;;;18.93;;
5555;SDS011;2801;50.972;7.856;2024-03-08T05:49:13;44.53;;;20.90;;
5555;SDS011;2801;50.972;7.856;2024-03-08T05:51:40;42.07;;;20.60;;
5555;SDS011;2801;50.972;7.856;2024-03-08T05:54:08;42.63;;;18.33;;
5555;SDS011;2801;50.972;7.856;2024-03-08T05:56:41;41.87;;;19.33;;
5555;SDS011;2801;50.972;7.856;2024-03-08T05:59:10;39.80;;;18.63;;
5555;SDS011;2801;50.972;7.856;2024-03-08T06:01:38;40.93;;;18.20;;
5555;SDS011;2801;50.972;7.856;2024-03-08T06:04:07;43.63;;;19.30;;
5555;SDS011;2801;50.972;7.856;2024-03-08T06:06:34;43.23;;;18.80;;
5555;SDS011;2801;50.972;7.856;2024-03-08T06:09:04;43.33;;;19.40;;
5555;SDS011;2801;50.972;7.856;2024-03-08T06:11:38;43.60;;;20.07;;
5555;SDS011;2801;50.972;7.856;2024-03-08T06:14:05;44.37;;;19.60;;
5555;SDS011;2801;50.972;7.856;2024-03-08T06:16:33;45.90;;;20.47;;
5555;SDS011;2801;50.972;7.856;2024-03-08T06:19:02;43.10;;;19.77;;
5555;SDS011;2801;50.972;7.856;2024-03-08T06:21:29;41.03;;;19.07;;
5555;SDS011;2801;50.972;7.856;2024-03-08T06:23:56;41.47;;;19.60;;
5555;SDS011;2801;50.972;7.856;2024-03-08T06:26:24;45.50;;;19.67;;
5555;SDS011;2801;50.972;7.856;2024-03-08T06:28:56;41.30;;;19.33;;
5555;SDS011;2801;50.972;7.856;2024-03-08T06:31:23;45.47;;;21.20;;
5555;SDS011;2801;50.972;7.856;2024-03-08T06:33:51;41.70;;;19.03;;
5555;SDS011;2801;50.972;7.856;2024-03-08T06:36:21;43.13;;;20.33;;
5555;SDS011;2801;50.972;7.856;2024-03-08T06:38:49;49.13;;;20.80;;
5555;SDS011;2801;50.972;7.856;2024-03-08T06:41:16;43.67;;;20.87;;
5555;SDS011;2801;50.972;7.856;2024-03-08T06:43:47;42.93;;;19.83;;
5555;SDS011;2801;50.972;7.856;2024-03-08T06:46:15;48.50;;;21.17;;
5555;SDS011;2801;50.972;7.856;2024-03-08T06:48:42;45.30;;;19.87;;
5555;SDS011;2801;50.972;7.856;2024-03-08T06:51:10;42.77;;;19.63;;
5555;SDS011;2801;50.972;7.856;2024-03-08T06:53:37;47.80;;;21.83;;
5555;SDS011;2801;50.972;7.856;2024-03-08T06:56:05;52.67;;;22.23;;
5555;SDS011;2801;50.972;7.856;2024-03-08T06:58:34;45.90;;;20.13;;
5555;SDS011;2801;50.972;7.856;2024-03-08T07:01:01;52.30;;;23.97;;
5555;SDS011;2801;50.972;7.856;2024-03-08T07:03:31;49.93;;;22.90;;
5555;SDS011;2801;50.972;7.856;2024-03-08T07:05:59;55.97;;;25.03;;
5555;SDS011;2801;50.972;7.856;2024-03-08T07:08:28;49.10;;;24.70;;
5555;SDS011;2801;50.972;7.856;2024-03-08T07:10:56;51.60;;;23.63;;
5555;SDS011;2801;50.972;7.856;2024-03-08T07:13:25;44.60;;;21.80;;
5555;SDS011;2801;50.972;7.856;2024-03-08T07:15:56;50.87;;;22.70;;
5555;SDS011;2801;50.972;7.856;2024-03-08T07:18:25;42.37;;;21.27;;
5555;SDS011;2801;50.972;7.856;2024-03-08T07:20:56;42.80;;;19.63;;
5555;SDS011;2801;50.972;7.856;2024-03-08T07:23:23;37.83;;;18.27;;
5555;SDS011;2801;50.972;7.856;2024-03-08T07:26:09;40.93;;;19.17;;
5555;SDS011;2801;50.972;7.856;2024-03-08T07:28:36;41.70;;;19.70;;
5555;SDS011;2801;50.972;7.856;2024-03-08T07:31:03;40.23;;;19.73;;
5555;SDS011;2801;50.972;7.856;2024-03-08T07:33:44;40.77;;;17.80;;
5555;SDS011;2801;50.972;7.856;2024-03-08T07:36:11;43.20;;;19.63;;
5555;SDS011;2801;50.972;7.856;2024-03-08T07:38:38;39.30;;;18.00;;
5555;SDS011;2801;50.972;7.856;2024-03-08T07:41:05;37.97;;;19.10;;
5555;SDS011;2801;50.972;7.856;2024-03-08T07:43:32;44.57;;;20.87;;
5555;SDS011;2801;50.972;7.856;2024-03-08T07:45:59;37.37;;;18.97;;
5555;SDS011;2801;50.972;7.856;2024-03-08T07:48:26;39.90;;;18.90;;
5555;SDS011;2801;50.972;7.856;2024-03-08T07:50:54;38.13;;;16.80;;
5555;SDS011;2801;50.972;7.856;2024-03-08T07:53:22;36.17;;;18.63;;
5555;SDS011;2801;50.972;7.856;2024-03-08T07:55:50;38.57;;;17.63;;
5555;SDS011;2801;50.972;7.856;2024-03-08T07:58:17;38.03;;;17.77;;
5555;SDS011;2801;50.972;7.856;2024-03-08T08:00:44;33.53;;;16.80;;
5555;SDS011;2801;50.972;7.856;2024-03-08T08:03:12;37.50;;;18.87;;
5555;SDS011;2801;50.972;7.856;2024-03-08T08:05:39;37.33;;;18.60;;
5555;SDS011;2801;50.972;7.856;2024-03-08T08:08:09;35.67;;;15.83;;
5555;SDS011;2801;50.972;7.856;2024-03-08T08:10:37;38.60;;;17.10;;
5555;SDS011;2801;50.972;7.856;2024-03-08T08:13:05;12.23;;;6.60;;
5555;SDS011;2801;50.972;7.856;2024-03-08T08:15:32;34.23;;;18.13;;
5555;SDS011;2801;50.972;7.856;2024-03-08T08:18:02;33.90;;;16.43;;
5555;SDS011;2801;50.972;7.856;2024-03-08T08:20:32;26.13;;;11.73;;
5555;SDS011;2801;50.972;7.856;2024-03-08T08:22:59;26.97;;;12.20;;
5555;SDS011;2801;50.972;7.856;2024-03-08T08:25:26;26.03;;;9.70;;
5555;SDS011;2801;50.972;7.856;2024-03-08T08:27:53;31.00;;;16.03;;
5555;SDS011;2801;50.972;7.856;2024-03-08T08:30:20;32.90;;;17.17;;
5555;SDS011;2801;50.972;7.856;2024-03-08T08:32:47;34.20;;;16.50;;
5555;SDS011;2801;50.972;7.856;2024-03-08T08:35:18;31.77;;;14.90;;
5555;SDS011;2801;50.972;7.856;2024-03-08T08:37:46;19.53;;;9.53;;
5555;SDS011;2801;50.972;7.856;2024-03-08T08:40:13;24.90;;;11.50;;
5555;SDS011;2801;50.972;7.856;2024-03-08T08:42:45;32.70;;;15.73;;
5555;SDS011;2801;50.972;7.856;2024-03-08T08:45:15;32.77;;;16.43;;
5555;SDS011;2801;50.972;7.856;2024-03-08T08:47:49;20.40;;;10.40;;
5555;SDS011;2801;50.972;7.856;2024-03-08T08:50:16;34.77;;;17.80;;
5555;SDS011;2801;50.972;7.856;2024-03-08T08:52:50;20.83;;;10.10;;
5555;SDS011;2801;50.972;7.856;2024-03-08T08:55:17;31.87;;;15.50;;
5555;SDS011;2801;50.972;7.856;2024-03-08T08:57:48;30.50;;;15.50;;
5555;SDS011;2801;50.972;7.856;2024-03-08T09:00:15;29.90;;;14.47;;
5555;SDS011;2801;50.972;7.856;2024-03-08T09:02:43;21.77;;;10.27;;
5555;SDS011;2801;50.972;7.856;2024-03-08T09:05:11;14.53;;;7.17;;
5555;SDS011;2801;50.972;7.856;2024-03-08T09:07:38;31.83;;;17.40;;
5555;SDS011;2801;50.972;7.856;2024-03-08T09:10:06;28.43;;;13.87;;
5555;SDS011;2801;50.972;7.856;2024-03-08T09:12:38;18.00;;;9.00;;
5555;SDS011;2801;50.972;7.856;2024-03-08T09:15:06;29.03;;;15.53;;
5555;SDS011;2801;50.972;7.856;2024-03-08T09:17:40;27.67;;;15.80;;
5555;SDS011;2801;50.972;7.856;2024-03-08T09:20:08;27.70;;;14.67;;
5555;SDS011;2801;50.972;7.856;2024-03-08T09:22:37;26.80;;;15.33;;
5555;SDS011;2801;50.972;7.856;2024-03-08T09:25:04;27.23;;;15.75;;
5555;SDS011;2801;50.972;7.856;2024-03-08T09:27:33;29.07;;;16.23;;
5555;SDS011;2801;50.972;7.856;2024-03-08T09:30:05;21.20;;;10.32;;
5555;SDS011;2801;50.972;7.856;2024-03-08T09:32:33;25.40;;;12.63;;
5555;SDS011;2801;50.972;7.856;2024-03-08T09:35:18;31.13;;;16.53;;
5555;SDS011;2801;50.972;7.856;2024-03-08T09:37:46;29.13;;;14.48;;
5555;SDS011;2801;50.972;7.856;2024-03-08T09:40:18;26.80;;;15.18;;
5555;SDS011;2801;50.972;7.856;2024-03-08T09:42:47;27.98;;;13.88;;
5555;SDS011;2801;50.972;7.856;2024-03-08T09:45:15;26.02;;;14.43;;
5555;SDS011;2801;50.972;7.856;2024-03-08T09:47:44;24.98;;;13.32;;
5555;SDS011;2801;50.972;7.856;2024-03-08T09:50:11;24.80;;;14.70;;
5555;SDS011;2801;50.972;7.856;2024-03-08T09:52:42;24.20;;;12.13;;
5555;SDS011;2801;50.972;7.856;2024-03-08T09:55:12;21.30;;;12.50;;
5555;SDS011;2801;50.972;7.856;2024-03-08T09:57:40;24.52;;;13.45;;
5555;SDS011;2801;50.972;7.856;2024-03-08T10:00:29;23.90;;;13.48;;
5555;SDS011;2801;50.972;7.856;2024-03-08T10:03:00;27.75;;;14.82;;
5555;SDS011;2801;50.972;7.856;2024-03-08T10:05:30;18.20;;;9.15;;
5555;SDS011;2801;50.972;7.856;2024-03-08T10:07:59;18.48;;;9.00;;
5555;SDS011;2801;50.972;7.856;2024-03-08T10:10:26;12.45;;;7.35;;
5555;SDS011;2801;50.972;7.856;2024-03-08T10:12:54;22.48;;;12.45;;
5555;SDS011;2801;50.972;7.856;2024-03-08T10:15:22;21.60;;;12.63;;
5555;SDS011;2801;50.972;7.856;2024-03-08T10:17:50;23.07;;;13.77;;
5555;SDS011;2801;50.972;7.856;2024-03-08T10:20:19;14.83;;;7.53;;
5555;SDS011;2801;50.972;7.856;2024-03-08T10:22:47;19.33;;;11.00;;
5555;SDS011;2801;50.972;7.856;2024-03-08T10:25:32;22.77;;;12.23;;
5555;SDS011;2801;50.972;7.856;2024-03-08T10:28:02;14.47;;;6.83;;
5555;SDS011;2801;50.972;7.856;2024-03-08T10:30:31;19.80;;;10.32;;
5555;SDS011;2801;50.972;7.856;2024-03-08T10:32:59;17.17;;;8.85;;
5555;SDS011;2801;50.972;7.856;2024-03-08T10:35:26;19.80;;;11.13;;
5555;SDS011;2801;50.972;7.856;2024-03-08T10:37:53;13.23;;;7.30;;
5555;SDS011;2801;50.972;7.856;2024-03-08T10:40:29;16.75;;;9.55;;
5555;SDS011;2801;50.972;7.856;2024-03-08T10:42:57;14.70;;;7.53;;
5555;SDS011;2801;50.972;7.856;2024-03-08T10:45:36;18.23;;;10.57;;
5555;SDS011;2801;50.972;7.856;2024-03-08T10:51:05;14.93;;;7.70;;
5555;SDS011;2801;50.972;7.856;2024-03-08T10:53:34;18.35;;;9.02;;
5555;SDS011;2801;50.972;7.856;2024-03-08T10:56:08;20.73;;;11.18;;
5555;SDS011;2801;50.972;7.856;2024-03-08T10:58:36;18.58;;;9.50;;
5555;SDS011;2801;50.972;7.856;2024-03-08T11:01:05;12.23;;;6.75;;
5555;SDS011;2801;50.972;7.856;2024-03-08T11:06:16;15.77;;;8.63;;
5555;SDS011;2801;50.972;7.856;2024-03-08T11:09:10;16.48;;;10.00;;
5555;SDS011;2801;50.972;7.856;2024-03-08T11:14:59;16.42;;;8.95;;
5555;SDS011;2801;50.972;7.856;2024-03-08T11:19:58;12.30;;;6.60;;
5555;SDS011;2801;50.972;7.856;2024-03-08T11:22:32;15.43;;;8.88;;
5555;SDS011;2801;50.972;7.856;2024-03-08T11:25:04;12.95;;;4.97;;
5555;SDS011;2801;50.972;7.856;2024-03-08T11:27:36;11.38;;;6.55;;
5555;SDS011;2801;50.972;7.856;2024-03-08T11:30:07;16.45;;;9.32;;
5555;SDS011;2801;50.972;7.856;2024-03-08T11:32:44;15.38;;;8.88;;
5555;SDS011;2801;50.972;7.856;2024-03-08T11:35:19;13.00;;;8.15;;
5555;SDS011;2801;50.972;7.856;2024-03-08T11:37:49;7.35;;;4.13;;
5555;SDS011;2801;50.972;7.856;2024-03-08T11:40:17;13.05;;;8.00;;
5555;SDS011;2801;50.972;7.856;2024-03-08T11:42:47;15.77;;;6.45;;
5555;SDS011;2801;50.972;7.856;2024-03-08T11:45:23;14.98;;;8.65;;
5555;SDS011;2801;50.972;7.856;2024-03-08T11:47:51;12.00;;;6.50;;
5555;SDS011;2801;50.972;7.856;2024-03-08T11:50:23;14.40;;;7.80;;
5555;SDS011;2801;50.972;7.856;2024-03-08T11:52:50;12.23;;;7.13;;
5555;SDS011;2801;50.972;7.856;2024-03-08T11:55:18;23.05;;;9.90;;
5555;SDS011;2801;50.972;7.856;2024-03-08T11:57:47;12.88;;;7.43;;
5555;SDS011;2801;50.972;7.856;2024-03-08T12:00:15;19.10;;;7.70;;
5555;SDS011;2801;50.972;7.856;2024-03-08T12:03:05;15.70;;;8.45;;
5555;SDS011;2801;50.972;7.856;2024-03-08T12:05:35;15.98;;;9.75;;
5555;SDS011;2801;50.972;7.856;2024-03-08T12:08:02;17.52;;;9.77;;
5555;SDS011;2801;50.972;7.856;2024-03-08T12:10:33;17.38;;;7.68;;
5555;SDS011;2801;50.972;7.856;2024-03-08T12:13:01;16.23;;;8.27;;
5555;SDS011;2801;50.972;7.856;2024-03-08T12:15:37;18.13;;;9.82;;
5555;SDS011;2801;50.972;7.856;2024-03-08T12:18:05;16.95;;;9.10;;
5555;SDS011;2801;50.972;7.856;2024-03-08T12:20:33;18.50;;;9.27;;
5555;SDS011;2801;50.972;7.856;2024-03-08T12:23:00;15.73;;;8.95;;
5555;SDS011;2801;50.972;7.856;2024-03-08T12:25:31;19.58;;;10.27;;
5555;SDS011;2801;50.972;7.856;2024-03-08T12:28:09;11.85;;;6.38;;
5555;SDS011;2801;50.972;7.856;2024-03-08T12:30:46;14.40;;;7.38;;
5555;SDS011;2801;50.972;7.856;2024-03-08T12:33:15;19.23;;;11.27;;
5555;SDS011;2801;50.972;7.856;2024-03-08T12:35:49;15.85;;;9.40;;
5555;SDS011;2801;50.972;7.856;2024-03-08T12:38:22;10.65;;;5.43;;
5555;SDS011;2801;50.972;7.856;2024-03-08T12:40:59;19.13;;;10.70;;
5555;SDS011;2801;50.972;7.856;2024-03-08T12:43:28;16.27;;;7.95;;
5555;SDS011;2801;50.972;7.856;2024-03-08T12:45:58;11.95;;;7.00;;
5555;SDS011;2801;50.972;7.856;2024-03-08T12:48:25;22.00;;;11.90;;
5555;SDS011;2801;50.972;7.856;2024-03-08T12:50:52;20.67;;;11.45;;
5555;SDS011;2801;50.972;7.856;2024-03-08T12:53:20;17.10;;;9.63;;
5555;SDS011;2801;50.972;7.856;2024-03-08T12:55:49;15.57;;;8.95;;
5555;SDS011;2801;50.972;7.856;2024-03-08T12:58:16;12.27;;;6.00;;
5555;SDS011;2801;50.972;7.856;2024-03-08T13:00:43;17.90;;;10.50;;
5555;SDS011;2801;50.972;7.856;2024-03-08T13:03:10;18.63;;;10.30;;
5555;SDS011;2801;50.972;7.856;2024-03-08T13:05:38;11.30;;;5.95;;
5555;SDS011;2801;50.972;7.856;2024-03-08T13:08:09;14.70;;;8.30;;
5555;SDS011;2801;50.972;7.856;2024-03-08T13:10:39;12.82;;;7.78;;
5555;SDS011;2801;50.972;7.856;2024-03-08T13:13:10;19.60;;;11.30;;
5555;SDS011;2801;50.972;7.856;2024-03-08T13:15:44;13.18;;;7.25;;
5555;SDS011;2801;50.972;7.856;2024-03-08T13:18:11;18.27;;;11.25;;
5555;SDS011;2801;50.972;7.856;2024-03-08T13:20:39;18.80;;;10.10;;
5555;SDS011;2801;50.972;7.856;2024-03-08T13:23:13;11.43;;;6.68;;
5555;SDS011;2801;50.972;7.856;2024-03-08T13:25:40;15.35;;;8.45;;
5555;SDS011;2801;50.972;7.856;2024-03-08T13:28:07;12.95;;;5.65;;
5555;SDS011;2801;50.972;7.856;2024-03-08T13:30:35;22.05;;;12.32;;
5555;SDS011;2801;50.972;7.856;2024-03-08T13:33:02;15.35;;;7.85;;
5555;SDS011;2801;50.972;7.856;2024-03-08T13:35:31;20.95;;;12.18;;
5555;SDS011;2801;50.972;7.856;2024-03-08T13:37:59;21.17;;;11.77;;
5555;SDS011;2801;50.972;7.856;2024-03-08T13:40:29;16.02;;;7.50;;
5555;SDS011;2801;50.972;7.856;2024-03-08T13:42:57;17.02;;;10.20;;
5555;SDS011;2801;50.972;7.856;2024-03-08T13:45:27;14.15;;;7.50;;
5555;SDS011;2801;50.972;7.856;2024-03-08T13:47:54;17.17;;;7.80;;
5555;SDS011;2801;50.972;7.856;2024-03-08T13:50:21;18.17;;;9.95;;
5555;SDS011;2801;50.972;7.856;2024-03-08T13:52:50;19.30;;;10.10;;
5555;SDS011;2801;50.972;7.856;2024-03-08T13:55:20;22.08;;;11.45;;
5555;SDS011;2801;50.972;7.856;2024-03-08T13:57:48;11.18;;;5.75;;
5555;SDS011;2801;50.972;7.856;2024-03-08T14:00:17;15.45;;;8.45;;
5555;SDS011;2801;50.972;7.856;2024-03-08T14:02:49;22.25;;;10.65;;
5555;SDS011;2801;50.972;7.856;2024-03-08T14:05:16;19.27;;;10.90;;
5555;SDS011;2801;50.972;7.856;2024-03-08T14:07:46;19.40;;;8.90;;
5555;SDS011;2801;50.972;7.856;2024-03-08T14:10:16;16.90;;;9.75;;
5555;SDS011;2801;50.972;7.856;2024-03-08T14:12:47;21.00;;;10.77;;
5555;SDS011;2801;50.972;7.856;2024-03-08T14:15:17;17.55;;;9.25;;
5555;SDS011;2801;50.972;7.856;2024-03-08T14:17:44;16.98;;;8.52;;
5555;SDS011;2801;50.972;7.856;2024-03-08T14:20:13;18.42;;;9.57;;
5555;SDS011;2801;50.972;7.856;2024-03-08T14:22:41;21.17;;;9.57;;
5555;SDS011;2801;50.972;7.856;2024-03-08T14:25:08;21.10;;;10.20;;
5555;SDS011;2801;50.972;7.856;2024-03-08T14:27:44;13.80;;;7.55;;
5555;SDS011;2801;50.972;7.856;2024-03-08T14:30:13;18.38;;;10.57;;
5555;SDS011;2801;50.972;7.856;2024-03-08T14:32:44;18.80;;;9.82;;
5555;SDS011;2801;50.972;7.856;2024-03-08T14:35:13;21.38;;;10.80;;
5555;SDS011;2801;50.972;7.856;2024-03-08T14:37:41;17.98;;;10.27;;
5555;SDS011;2801;50.972;7.856;2024-03-08T14:40:09;11.25;;;6.00;;
5555;SDS011;2801;50.972;7.856;2024-03-08T14:42:37;17.00;;;9.10;;
5555;SDS011;2801;50.972;7.856;2024-03-08T14:45:09;15.52;;;9.13;;
5555;SDS011;2801;50.972;7.856;2024-03-08T14:47:35;19.25;;;10.32;;
5555;SDS011;2801;50.972;7.856;2024-03-08T14:50:04;16.20;;;8.75;;
5555;SDS011;2801;50.972;7.856;2024-03-08T14:52:34;20.08;;;10.43;;
5555;SDS011;2801;50.972;7.856;2024-03-08T14:55:03;15.02;;;7.18;;
5555;SDS011;2801;50.972;7.856;2024-03-08T14:57:32;19.05;;;9.70;;
5555;SDS011;2801;50.972;7.856;2024-03-08T15:00:00;12.10;;;6.15;;
5555;SDS011;2801;50.972;7.856;2024-03-08T15:02:32;15.50;;;8.63;;
5555;SDS011;2801;50.972;7.856;2024-03-08T15:05:03;8.13;;;4.13;;
5555;SDS011;2801;50.972;7.856;2024-03-08T15:07:35;15.45;;;7.53;;
5555;SDS011;2801;50.972;7.856;2024-03-08T15:10:01;22.40;;;9.82;;
5555;SDS011;2801;50.972;7.856;2024-03-08T15:12:29;15.90;;;9.23;;